sensor_id;sensor_type;location;lat;lon;timestamp;P1;durP1;ratioP1;P2;durP2;ratioP2
52188;SDS011;38162;45.926;13.608;2022-10-16T00:01:16;51.75;;;38.33;;
52188;SDS011;38162;45.926;13.608;2022-10-16T00:03:44;50.97;;;38.75;;
52188;SDS011;38162;45.926;13.608;2022-10-16T00:06:11;49.00;;;39.20;;
52188;SDS011;38162;45.926;13.608;2022-10-16T00:08:39;47.72;;;38.22;;
52188;SDS011;38162;45.926;13.608;2022-10-16T00:11:06;48.72;;;40.20;;
52188;SDS011;38162;45.926;13.608;2022-10-16T00:13:35;47.58;;;38.97;;
52188;SDS011;38162;45.926;13.608;2022-10-16T00:16:02;55.78;;;39.83;;
52188;SDS011;38162;45.926;13.608;2022-10-16T00:18:28;43.58;;;36.95;;
52188;SDS011;38162;45.926;13.608;2022-10-16T00:20:54;48.42;;;38.15;;
52188;SDS011;38162;45.926;13.608;2022-10-16T00:23:21;48.70;;;37.80;;
52188;SDS011;38162;45.926;13.608;2022-10-16T00:25:57;44.08;;;36.28;;
52188;SDS011;38162;45.926;13.608;2022-10-16T00:28:24;45.42;;;36.30;;
52188;SDS011;38162;45.926;13.608;2022-10-16T00:30:50;52.63;;;38.00;;
52188;SDS011;38162;45.926;13.608;2022-10-16T00:33:16;44.25;;;36.13;;
52188;SDS011;38162;45.926;13.608;2022-10-16T00:35:42;48.78;;;37.50;;
52188;SDS011;38162;45.926;13.608;2022-10-16T00:38:08;47.45;;;38.10;;
52188;SDS011;38162;45.926;13.608;2022-10-16T00:40:34;48.45;;;37.88;;
52188;SDS011;38162;45.926;13.608;2022-10-16T00:43:00;44.60;;;36.20;;
52188;SDS011;38162;45.926;13.608;2022-10-16T00:45:26;46.33;;;37.75;;
52188;SDS011;38162;45.926;13.608;2022-10-16T00:47:52;46.55;;;36.05;;
52188;SDS011;38162;45.926;13.608;2022-10-16T00:50:27;49.30;;;36.92;;
52188;SDS011;38162;45.926;13.608;2022-10-16T00:52:58;46.08;;;37.60;;
52188;SDS011;38162;45.926;13.608;2022-10-16T00:55:25;48.38;;;37.83;;
52188;SDS011;38162;45.926;13.608;2022-10-16T00:57:53;45.60;;;36.28;;
52188;SDS011;38162;45.926;13.608;2022-10-16T01:00:22;48.60;;;36.90;;
52188;SDS011;38162;45.926;13.608;2022-10-16T01:02:54;47.63;;;37.40;;
52188;SDS011;38162;45.926;13.608;2022-10-16T01:05:21;51.13;;;37.88;;
52188;SDS011;38162;45.926;13.608;2022-10-16T01:08:04;47.42;;;37.22;;
52188;SDS011;38162;45.926;13.608;2022-10-16T01:13:06;48.08;;;36.47;;
52188;SDS011;38162;45.926;13.608;2022-10-16T01:29:08;53.53;;;37.40;;
52188;SDS011;38162;45.926;13.608;2022-10-16T01:31:41;46.13;;;36.90;;
52188;SDS011;38162;45.926;13.608;2022-10-16T01:37:12;48.78;;;36.38;;
52188;SDS011;38162;45.926;13.608;2022-10-16T01:39:39;46.83;;;36.33;;
52188;SDS011;38162;45.926;13.608;2022-10-16T01:42:17;44.28;;;35.78;;
52188;SDS011;38162;45.926;13.608;2022-10-16T01:44:46;46.63;;;36.50;;
52188;SDS011;38162;45.926;13.608;2022-10-16T01:47:14;47.20;;;37.58;;
52188;SDS011;38162;45.926;13.608;2022-10-16T01:49:42;46.58;;;37.58;;
52188;SDS011;38162;45.926;13.608;2022-10-16T01:52:11;53.25;;;40.35;;
52188;SDS011;38162;45.926;13.608;2022-10-16T01:54:41;51.05;;;38.88;;
52188;SDS011;38162;45.926;13.608;2022-10-16T01:57:10;49.53;;;38.30;;
52188;SDS011;38162;45.926;13.608;2022-10-16T01:59:40;48.25;;;39.70;;
52188;SDS011;38162;45.926;13.608;2022-10-16T02:02:11;47.92;;;37.97;;
52188;SDS011;38162;45.926;13.608;2022-10-16T02:04:44;47.85;;;37.88;;
52188;SDS011;38162;45.926;13.608;2022-10-16T02:07:14;50.35;;;37.85;;
52188;SDS011;38162;45.926;13.608;2022-10-16T02:09:40;51.47;;;37.58;;
52188;SDS011;38162;45.926;13.608;2022-10-16T02:12:08;48.05;;;37.05;;
52188;SDS011;38162;45.926;13.608;2022-10-16T02:14:41;46.03;;;36.53;;
52188;SDS011;38162;45.926;13.608;2022-10-16T02:17:14;48.75;;;36.97;;
52188;SDS011;38162;45.926;13.608;2022-10-16T02:19:42;45.63;;;35.45;;
52188;SDS011;38162;45.926;13.608;2022-10-16T02:22:13;44.80;;;36.70;;
52188;SDS011;38162;45.926;13.608;2022-10-16T02:24:47;50.10;;;36.05;;
52188;SDS011;38162;45.926;13.608;2022-10-16T02:27:31;44.80;;;34.47;;
52188;SDS011;38162;45.926;13.608;2022-10-16T02:30:05;47.17;;;36.15;;
52188;SDS011;38162;45.926;13.608;2022-10-16T02:32:41;45.83;;;36.03;;
52188;SDS011;38162;45.926;13.608;2022-10-16T02:35:09;42.30;;;35.80;;
52188;SDS011;38162;45.926;13.608;2022-10-16T02:37:36;47.80;;;37.47;;
52188;SDS011;38162;45.926;13.608;2022-10-16T02:40:03;46.15;;;36.63;;
52188;SDS011;38162;45.926;13.608;2022-10-16T02:42:34;42.78;;;36.13;;
52188;SDS011;38162;45.926;13.608;2022-10-16T02:45:01;41.90;;;35.08;;
52188;SDS011;38162;45.926;13.608;2022-10-16T02:47:27;49.35;;;37.05;;
52188;SDS011;38162;45.926;13.608;2022-10-16T02:49:53;45.90;;;37.13;;
52188;SDS011;38162;45.926;13.608;2022-10-16T02:52:19;48.20;;;36.38;;
52188;SDS011;38162;45.926;13.608;2022-10-16T02:54:44;44.50;;;36.40;;
52188;SDS011;38162;45.926;13.608;2022-10-16T02:57:10;50.90;;;38.33;;
52188;SDS011;38162;45.926;13.608;2022-10-16T02:59:36;46.55;;;37.50;;
52188;SDS011;38162;45.926;13.608;2022-10-16T03:02:02;47.88;;;37.45;;
52188;SDS011;38162;45.926;13.608;2022-10-16T03:04:28;52.00;;;38.45;;
52188;SDS011;38162;45.926;13.608;2022-10-16T03:06:54;45.22;;;37.92;;
52188;SDS011;38162;45.926;13.608;2022-10-16T03:09:19;53.55;;;38.17;;
52188;SDS011;38162;45.926;13.608;2022-10-16T03:11:45;50.85;;;37.15;;
52188;SDS011;38162;45.926;13.608;2022-10-16T03:14:11;47.88;;;37.00;;
52188;SDS011;38162;45.926;13.608;2022-10-16T03:16:36;48.33;;;37.63;;
52188;SDS011;38162;45.926;13.608;2022-10-16T03:19:02;46.60;;;36.38;;
52188;SDS011;38162;45.926;13.608;2022-10-16T03:21:28;47.20;;;36.80;;
52188;SDS011;38162;45.926;13.608;2022-10-16T03:23:54;45.60;;;36.13;;
52188;SDS011;38162;45.926;13.608;2022-10-16T03:26:20;42.63;;;36.30;;
52188;SDS011;38162;45.926;13.608;2022-10-16T03:28:46;45.40;;;35.05;;
52188;SDS011;38162;45.926;13.608;2022-10-16T03:31:11;44.30;;;36.35;;
52188;SDS011;38162;45.926;13.608;2022-10-16T03:33:37;42.85;;;35.03;;
52188;SDS011;38162;45.926;13.608;2022-10-16T03:36:03;47.75;;;36.45;;
52188;SDS011;38162;45.926;13.608;2022-10-16T03:38:29;44.47;;;35.78;;
52188;SDS011;38162;45.926;13.608;2022-10-16T03:40:54;42.63;;;36.20;;
52188;SDS011;38162;45.926;13.608;2022-10-16T03:43:20;41.28;;;34.67;;
52188;SDS011;38162;45.926;13.608;2022-10-16T03:45:46;48.75;;;37.42;;
52188;SDS011;38162;45.926;13.608;2022-10-16T03:48:11;43.65;;;35.60;;
52188;SDS011;38162;45.926;13.608;2022-10-16T03:50:37;46.05;;;36.42;;
52188;SDS011;38162;45.926;13.608;2022-10-16T03:53:03;43.78;;;34.80;;
52188;SDS011;38162;45.926;13.608;2022-10-16T03:55:28;44.30;;;36.63;;
52188;SDS011;38162;45.926;13.608;2022-10-16T03:57:54;43.55;;;36.05;;
52188;SDS011;38162;45.926;13.608;2022-10-16T04:00:20;48.92;;;38.38;;
52188;SDS011;38162;45.926;13.608;2022-10-16T04:02:45;46.17;;;36.60;;
52188;SDS011;38162;45.926;13.608;2022-10-16T04:05:11;44.92;;;36.88;;
52188;SDS011;38162;45.926;13.608;2022-10-16T04:07:37;47.28;;;37.45;;
52188;SDS011;38162;45.926;13.608;2022-10-16T04:10:03;49.20;;;37.22;;
52188;SDS011;38162;45.926;13.608;2022-10-16T04:12:29;45.22;;;35.33;;
52188;SDS011;38162;45.926;13.608;2022-10-16T04:14:55;47.03;;;35.10;;
52188;SDS011;38162;45.926;13.608;2022-10-16T04:17:20;52.83;;;36.88;;
52188;SDS011;38162;45.926;13.608;2022-10-16T04:19:46;44.78;;;34.83;;
52188;SDS011;38162;45.926;13.608;2022-10-16T04:22:11;41.67;;;33.38;;
52188;SDS011;38162;45.926;13.608;2022-10-16T04:24:37;40.83;;;34.03;;
52188;SDS011;38162;45.926;13.608;2022-10-16T04:27:03;42.55;;;34.58;;
52188;SDS011;38162;45.926;13.608;2022-10-16T04:29:28;43.38;;;34.30;;
52188;SDS011;38162;45.926;13.608;2022-10-16T04:31:54;41.13;;;34.50;;
52188;SDS011;38162;45.926;13.608;2022-10-16T04:34:20;42.92;;;34.42;;
52188;SDS011;38162;45.926;13.608;2022-10-16T04:36:48;46.17;;;36.35;;
52188;SDS011;38162;45.926;13.608;2022-10-16T04:39:14;48.38;;;36.85;;
52188;SDS011;38162;45.926;13.608;2022-10-16T04:41:41;47.00;;;37.50;;
52188;SDS011;38162;45.926;13.608;2022-10-16T04:44:07;46.55;;;37.70;;
52188;SDS011;38162;45.926;13.608;2022-10-16T04:46:33;46.40;;;38.42;;
52188;SDS011;38162;45.926;13.608;2022-10-16T04:48:58;48.33;;;37.53;;
52188;SDS011;38162;45.926;13.608;2022-10-16T04:51:24;47.22;;;37.70;;
52188;SDS011;38162;45.926;13.608;2022-10-16T04:53:51;45.35;;;38.20;;
52188;SDS011;38162;45.926;13.608;2022-10-16T04:56:17;48.05;;;37.67;;
52188;SDS011;38162;45.926;13.608;2022-10-16T04:58:42;47.92;;;38.78;;
52188;SDS011;38162;45.926;13.608;2022-10-16T05:01:08;49.17;;;37.53;;
52188;SDS011;38162;45.926;13.608;2022-10-16T05:03:34;46.13;;;37.22;;
52188;SDS011;38162;45.926;13.608;2022-10-16T05:05:59;47.72;;;37.10;;
52188;SDS011;38162;45.926;13.608;2022-10-16T05:08:25;48.75;;;38.67;;
52188;SDS011;38162;45.926;13.608;2022-10-16T05:10:51;46.95;;;37.55;;
52188;SDS011;38162;45.926;13.608;2022-10-16T05:13:16;50.38;;;38.70;;
52188;SDS011;38162;45.926;13.608;2022-10-16T05:15:46;48.20;;;38.10;;
52188;SDS011;38162;45.926;13.608;2022-10-16T05:18:13;44.88;;;35.78;;
52188;SDS011;38162;45.926;13.608;2022-10-16T05:20:39;49.03;;;38.88;;
52188;SDS011;38162;45.926;13.608;2022-10-16T05:23:04;47.28;;;38.92;;
52188;SDS011;38162;45.926;13.608;2022-10-16T05:25:30;47.13;;;37.85;;
52188;SDS011;38162;45.926;13.608;2022-10-16T05:27:56;49.08;;;38.53;;
52188;SDS011;38162;45.926;13.608;2022-10-16T05:30:21;47.97;;;38.60;;
52188;SDS011;38162;45.926;13.608;2022-10-16T05:32:47;47.97;;;38.55;;
52188;SDS011;38162;45.926;13.608;2022-10-16T05:35:14;50.17;;;39.67;;
52188;SDS011;38162;45.926;13.608;2022-10-16T05:37:40;59.85;;;41.00;;
52188;SDS011;38162;45.926;13.608;2022-10-16T05:40:06;53.88;;;39.60;;
52188;SDS011;38162;45.926;13.608;2022-10-16T05:42:33;49.97;;;40.10;;
52188;SDS011;38162;45.926;13.608;2022-10-16T05:44:58;47.30;;;38.90;;
52188;SDS011;38162;45.926;13.608;2022-10-16T05:47:24;48.75;;;38.72;;
52188;SDS011;38162;45.926;13.608;2022-10-16T05:49:50;51.15;;;40.10;;
52188;SDS011;38162;45.926;13.608;2022-10-16T05:52:15;51.78;;;40.53;;
52188;SDS011;38162;45.926;13.608;2022-10-16T05:54:41;56.97;;;40.13;;
52188;SDS011;38162;45.926;13.608;2022-10-16T05:57:07;49.85;;;40.42;;
52188;SDS011;38162;45.926;13.608;2022-10-16T05:59:32;51.50;;;40.08;;
52188;SDS011;38162;45.926;13.608;2022-10-16T06:01:58;50.53;;;38.67;;
52188;SDS011;38162;45.926;13.608;2022-10-16T06:04:23;48.65;;;39.00;;
52188;SDS011;38162;45.926;13.608;2022-10-16T06:06:49;49.15;;;38.80;;
52188;SDS011;38162;45.926;13.608;2022-10-16T06:09:15;49.60;;;38.60;;
52188;SDS011;38162;45.926;13.608;2022-10-16T06:11:40;53.58;;;37.67;;
52188;SDS011;38162;45.926;13.608;2022-10-16T06:14:08;51.45;;;36.97;;
52188;SDS011;38162;45.926;13.608;2022-10-16T06:16:34;42.38;;;35.60;;
52188;SDS011;38162;45.926;13.608;2022-10-16T06:19:02;46.90;;;35.88;;
52188;SDS011;38162;45.926;13.608;2022-10-16T06:21:31;41.20;;;34.83;;
52188;SDS011;38162;45.926;13.608;2022-10-16T06:23:57;46.00;;;36.33;;
52188;SDS011;38162;45.926;13.608;2022-10-16T06:26:24;43.97;;;35.60;;
52188;SDS011;38162;45.926;13.608;2022-10-16T06:28:53;45.03;;;35.20;;
52188;SDS011;38162;45.926;13.608;2022-10-16T06:31:20;46.28;;;37.20;;
52188;SDS011;38162;45.926;13.608;2022-10-16T06:33:49;49.58;;;36.75;;
52188;SDS011;38162;45.926;13.608;2022-10-16T06:36:16;51.40;;;36.63;;
52188;SDS011;38162;45.926;13.608;2022-10-16T06:38:42;47.13;;;36.85;;
52188;SDS011;38162;45.926;13.608;2022-10-16T06:41:12;43.35;;;36.13;;
52188;SDS011;38162;45.926;13.608;2022-10-16T06:43:39;42.50;;;35.58;;
52188;SDS011;38162;45.926;13.608;2022-10-16T06:46:05;51.85;;;36.38;;
52188;SDS011;38162;45.926;13.608;2022-10-16T06:48:35;44.70;;;36.17;;
52188;SDS011;38162;45.926;13.608;2022-10-16T06:51:11;44.25;;;35.20;;
52188;SDS011;38162;45.926;13.608;2022-10-16T06:53:40;46.08;;;35.22;;
52188;SDS011;38162;45.926;13.608;2022-10-16T06:56:11;45.80;;;36.08;;
52188;SDS011;38162;45.926;13.608;2022-10-16T06:58:42;46.50;;;35.65;;
52188;SDS011;38162;45.926;13.608;2022-10-16T07:01:08;48.08;;;37.58;;
52188;SDS011;38162;45.926;13.608;2022-10-16T07:03:36;44.00;;;36.70;;
52188;SDS011;38162;45.926;13.608;2022-10-16T07:06:03;52.20;;;39.70;;
52188;SDS011;38162;45.926;13.608;2022-10-16T07:08:34;46.53;;;36.70;;
52188;SDS011;38162;45.926;13.608;2022-10-16T07:11:01;47.75;;;36.35;;
52188;SDS011;38162;45.926;13.608;2022-10-16T07:13:35;51.15;;;37.97;;
52188;SDS011;38162;45.926;13.608;2022-10-16T07:16:09;47.28;;;35.75;;
52188;SDS011;38162;45.926;13.608;2022-10-16T07:18:42;45.00;;;37.53;;
52188;SDS011;38162;45.926;13.608;2022-10-16T07:21:14;44.42;;;36.42;;
52188;SDS011;38162;45.926;13.608;2022-10-16T07:23:41;49.63;;;37.60;;
52188;SDS011;38162;45.926;13.608;2022-10-16T07:26:07;46.70;;;37.03;;
52188;SDS011;38162;45.926;13.608;2022-10-16T07:28:34;46.42;;;37.83;;
52188;SDS011;38162;45.926;13.608;2022-10-16T07:31:01;50.83;;;39.80;;
52188;SDS011;38162;45.926;13.608;2022-10-16T07:33:29;45.17;;;37.85;;
52188;SDS011;38162;45.926;13.608;2022-10-16T07:35:55;48.45;;;37.70;;
52188;SDS011;38162;45.926;13.608;2022-10-16T07:38:21;51.88;;;37.97;;
52188;SDS011;38162;45.926;13.608;2022-10-16T07:40:47;53.28;;;39.03;;
52188;SDS011;38162;45.926;13.608;2022-10-16T07:43:13;45.97;;;36.33;;
52188;SDS011;38162;45.926;13.608;2022-10-16T07:45:48;51.25;;;38.10;;
52188;SDS011;38162;45.926;13.608;2022-10-16T07:48:15;49.28;;;37.92;;
52188;SDS011;38162;45.926;13.608;2022-10-16T07:50:42;46.17;;;37.55;;
52188;SDS011;38162;45.926;13.608;2022-10-16T07:53:08;46.38;;;38.88;;
52188;SDS011;38162;45.926;13.608;2022-10-16T07:55:34;48.80;;;38.08;;
52188;SDS011;38162;45.926;13.608;2022-10-16T07:58:00;45.70;;;38.72;;
52188;SDS011;38162;45.926;13.608;2022-10-16T08:00:26;51.13;;;37.38;;
52188;SDS011;38162;45.926;13.608;2022-10-16T08:02:51;46.92;;;37.72;;
52188;SDS011;38162;45.926;13.608;2022-10-16T08:05:17;47.72;;;38.58;;
52188;SDS011;38162;45.926;13.608;2022-10-16T08:07:43;54.33;;;39.83;;
52188;SDS011;38162;45.926;13.608;2022-10-16T08:10:16;45.00;;;37.42;;
52188;SDS011;38162;45.926;13.608;2022-10-16T08:12:43;48.05;;;36.58;;
52188;SDS011;38162;45.926;13.608;2022-10-16T08:15:08;50.47;;;38.28;;
52188;SDS011;38162;45.926;13.608;2022-10-16T08:17:34;51.75;;;38.28;;
52188;SDS011;38162;45.926;13.608;2022-10-16T08:20:00;49.70;;;36.53;;
52188;SDS011;38162;45.926;13.608;2022-10-16T08:22:26;48.63;;;38.38;;
52188;SDS011;38162;45.926;13.608;2022-10-16T08:24:52;50.13;;;39.13;;
52188;SDS011;38162;45.926;13.608;2022-10-16T08:27:18;51.22;;;37.55;;
52188;SDS011;38162;45.926;13.608;2022-10-16T08:29:43;52.70;;;39.05;;
52188;SDS011;38162;45.926;13.608;2022-10-16T08:32:09;47.20;;;38.97;;
52188;SDS011;38162;45.926;13.608;2022-10-16T08:34:35;50.78;;;38.95;;
52188;SDS011;38162;45.926;13.608;2022-10-16T08:37:00;51.10;;;40.45;;
52188;SDS011;38162;45.926;13.608;2022-10-16T08:39:27;46.13;;;37.17;;
52188;SDS011;38162;45.926;13.608;2022-10-16T08:44:48;50.38;;;39.38;;
52188;SDS011;38162;45.926;13.608;2022-10-16T08:50:18;50.15;;;37.92;;
52188;SDS011;38162;45.926;13.608;2022-10-16T08:52:52;48.45;;;37.45;;
52188;SDS011;38162;45.926;13.608;2022-10-16T08:55:29;44.25;;;37.40;;
52188;SDS011;38162;45.926;13.608;2022-10-16T08:58:07;56.47;;;38.33;;
52188;SDS011;38162;45.926;13.608;2022-10-16T09:00:50;47.30;;;37.45;;
52188;SDS011;38162;45.926;13.608;2022-10-16T09:16:28;44.13;;;37.00;;
52188;SDS011;38162;45.926;13.608;2022-10-16T09:19:10;46.85;;;38.63;;
52188;SDS011;38162;45.926;13.608;2022-10-16T09:21:44;47.92;;;38.30;;
52188;SDS011;38162;45.926;13.608;2022-10-16T09:24:19;46.00;;;37.72;;
52188;SDS011;38162;45.926;13.608;2022-10-16T09:26:46;46.45;;;36.63;;
52188;SDS011;38162;45.926;13.608;2022-10-16T09:29:16;47.92;;;38.35;;
52188;SDS011;38162;45.926;13.608;2022-10-16T09:31:47;48.50;;;37.50;;
52188;SDS011;38162;45.926;13.608;2022-10-16T09:36:59;47.42;;;35.75;;
52188;SDS011;38162;45.926;13.608;2022-10-16T09:39:29;47.53;;;37.15;;
52188;SDS011;38162;45.926;13.608;2022-10-16T09:41:54;47.22;;;37.90;;
52188;SDS011;38162;45.926;13.608;2022-10-16T09:44:23;45.08;;;37.10;;
52188;SDS011;38162;45.926;13.608;2022-10-16T09:50:04;49.10;;;38.83;;
52188;SDS011;38162;45.926;13.608;2022-10-16T09:52:45;46.78;;;36.17;;
52188;SDS011;38162;45.926;13.608;2022-10-16T09:55:14;46.78;;;36.92;;
52188;SDS011;38162;45.926;13.608;2022-10-16T09:57:51;45.72;;;37.08;;
52188;SDS011;38162;45.926;13.608;2022-10-16T10:00:20;46.92;;;37.25;;
52188;SDS011;38162;45.926;13.608;2022-10-16T10:02:48;42.90;;;36.58;;
52188;SDS011;38162;45.926;13.608;2022-10-16T10:05:21;46.67;;;37.83;;
52188;SDS011;38162;45.926;13.608;2022-10-16T10:07:58;46.67;;;37.63;;
52188;SDS011;38162;45.926;13.608;2022-10-16T10:10:31;47.67;;;38.47;;
52188;SDS011;38162;45.926;13.608;2022-10-16T10:13:02;50.13;;;38.28;;
52188;SDS011;38162;45.926;13.608;2022-10-16T10:15:29;50.15;;;39.72;;
52188;SDS011;38162;45.926;13.608;2022-10-16T10:17:59;47.60;;;39.83;;
52188;SDS011;38162;45.926;13.608;2022-10-16T10:20:34;48.60;;;38.58;;
52188;SDS011;38162;45.926;13.608;2022-10-16T10:23:36;52.70;;;39.05;;
52188;SDS011;38162;45.926;13.608;2022-10-16T10:28:45;50.88;;;40.92;;
52188;SDS011;38162;45.926;13.608;2022-10-16T10:31:36;48.78;;;39.72;;
52188;SDS011;38162;45.926;13.608;2022-10-16T10:34:21;48.25;;;39.38;;
52188;SDS011;38162;45.926;13.608;2022-10-16T10:39:36;50.75;;;38.92;;
52188;SDS011;38162;45.926;13.608;2022-10-16T11:01:15;57.45;;;38.70;;
52188;SDS011;38162;45.926;13.608;2022-10-16T11:06:52;59.50;;;44.30;;
52188;SDS011;38162;45.926;13.608;2022-10-16T11:09:45;59.10;;;42.53;;
52188;SDS011;38162;45.926;13.608;2022-10-16T11:14:48;64.40;;;45.05;;
52188;SDS011;38162;45.926;13.608;2022-10-16T11:19:48;65.82;;;45.92;;
52188;SDS011;38162;45.926;13.608;2022-10-16T11:22:19;68.50;;;46.15;;
52188;SDS011;38162;45.926;13.608;2022-10-16T11:25:11;61.60;;;46.03;;
52188;SDS011;38162;45.926;13.608;2022-10-16T11:30:33;60.33;;;41.92;;
52188;SDS011;38162;45.926;13.608;2022-10-16T11:38:20;57.47;;;40.75;;
52188;SDS011;38162;45.926;13.608;2022-10-16T11:40:58;57.03;;;41.85;;
52188;SDS011;38162;45.926;13.608;2022-10-16T11:43:31;58.00;;;42.38;;
52188;SDS011;38162;45.926;13.608;2022-10-16T11:46:10;52.60;;;40.35;;
52188;SDS011;38162;45.926;13.608;2022-10-16T11:48:45;52.40;;;40.60;;
52188;SDS011;38162;45.926;13.608;2022-10-16T11:51:45;54.45;;;39.17;;
52188;SDS011;38162;45.926;13.608;2022-10-16T11:54:22;63.38;;;40.50;;
52188;SDS011;38162;45.926;13.608;2022-10-16T11:57:18;53.33;;;42.05;;
52188;SDS011;38162;45.926;13.608;2022-10-16T11:59:48;56.30;;;39.88;;
52188;SDS011;38162;45.926;13.608;2022-10-16T12:04:57;52.88;;;40.15;;
52188;SDS011;38162;45.926;13.608;2022-10-16T12:07:38;60.05;;;40.42;;
52188;SDS011;38162;45.926;13.608;2022-10-16T12:10:23;50.78;;;38.42;;
52188;SDS011;38162;45.926;13.608;2022-10-16T12:12:53;50.00;;;38.67;;
52188;SDS011;38162;45.926;13.608;2022-10-16T12:15:28;59.00;;;40.13;;
52188;SDS011;38162;45.926;13.608;2022-10-16T12:17:59;54.55;;;39.50;;
52188;SDS011;38162;45.926;13.608;2022-10-16T12:20:32;60.97;;;39.90;;
52188;SDS011;38162;45.926;13.608;2022-10-16T12:23:04;59.10;;;40.55;;
52188;SDS011;38162;45.926;13.608;2022-10-16T12:25:31;55.22;;;38.30;;
52188;SDS011;38162;45.926;13.608;2022-10-16T12:28:04;51.07;;;39.37;;
52188;SDS011;38162;45.926;13.608;2022-10-16T12:30:34;54.70;;;42.03;;
52188;SDS011;38162;45.926;13.608;2022-10-16T12:33:19;56.63;;;41.75;;
52188;SDS011;38162;45.926;13.608;2022-10-16T12:35:49;54.85;;;41.92;;
52188;SDS011;38162;45.926;13.608;2022-10-16T12:38:19;58.63;;;42.42;;
52188;SDS011;38162;45.926;13.608;2022-10-16T12:41:03;58.13;;;40.10;;
52188;SDS011;38162;45.926;13.608;2022-10-16T12:43:38;63.22;;;43.22;;
52188;SDS011;38162;45.926;13.608;2022-10-16T12:48:32;54.58;;;39.67;;
52188;SDS011;38162;45.926;13.608;2022-10-16T12:51:44;51.63;;;38.50;;
52188;SDS011;38162;45.926;13.608;2022-10-16T12:56:37;60.55;;;40.25;;
52188;SDS011;38162;45.926;13.608;2022-10-16T13:05:16;61.17;;;40.45;;
52188;SDS011;38162;45.926;13.608;2022-10-16T13:19:31;54.22;;;41.25;;
52188;SDS011;38162;45.926;13.608;2022-10-16T13:25:08;58.38;;;40.03;;
52188;SDS011;38162;45.926;13.608;2022-10-16T13:28:01;54.95;;;41.63;;
52188;SDS011;38162;45.926;13.608;2022-10-16T13:30:29;56.35;;;40.63;;
52188;SDS011;38162;45.926;13.608;2022-10-16T13:35:29;50.35;;;37.95;;
52188;SDS011;38162;45.926;13.608;2022-10-16T13:38:04;55.05;;;41.78;;
52188;SDS011;38162;45.926;13.608;2022-10-16T13:40:57;59.97;;;42.65;;
52188;SDS011;38162;45.926;13.608;2022-10-16T13:43:31;53.30;;;40.75;;
52188;SDS011;38162;45.926;13.608;2022-10-16T13:46:02;55.13;;;41.20;;
52188;SDS011;38162;45.926;13.608;2022-10-16T13:48:30;64.70;;;41.95;;
52188;SDS011;38162;45.926;13.608;2022-10-16T13:53:29;61.77;;;41.77;;
52188;SDS011;38162;45.926;13.608;2022-10-16T13:55:59;59.90;;;42.20;;
52188;SDS011;38162;45.926;13.608;2022-10-16T13:58:27;59.83;;;41.00;;
52188;SDS011;38162;45.926;13.608;2022-10-16T14:00:53;57.92;;;41.97;;
52188;SDS011;38162;45.926;13.608;2022-10-16T14:03:21;60.05;;;40.63;;
52188;SDS011;38162;45.926;13.608;2022-10-16T14:05:48;57.42;;;38.58;;
52188;SDS011;38162;45.926;13.608;2022-10-16T14:08:18;54.13;;;38.07;;
52188;SDS011;38162;45.926;13.608;2022-10-16T14:10:48;51.15;;;40.17;;
52188;SDS011;38162;45.926;13.608;2022-10-16T14:13:19;60.13;;;40.60;;
52188;SDS011;38162;45.926;13.608;2022-10-16T14:15:51;57.58;;;41.30;;
52188;SDS011;38162;45.926;13.608;2022-10-16T14:18:23;54.80;;;39.17;;
52188;SDS011;38162;45.926;13.608;2022-10-16T14:20:51;56.65;;;40.50;;
52188;SDS011;38162;45.926;13.608;2022-10-16T14:23:28;61.67;;;42.15;;
52188;SDS011;38162;45.926;13.608;2022-10-16T14:28:39;64.78;;;42.42;;
52188;SDS011;38162;45.926;13.608;2022-10-16T14:33:57;49.70;;;38.83;;
52188;SDS011;38162;45.926;13.608;2022-10-16T14:36:24;61.15;;;42.85;;
52188;SDS011;38162;45.926;13.608;2022-10-16T14:38:59;59.95;;;42.88;;
52188;SDS011;38162;45.926;13.608;2022-10-16T14:41:33;56.88;;;40.05;;
52188;SDS011;38162;45.926;13.608;2022-10-16T14:44:11;54.90;;;40.40;;
52188;SDS011;38162;45.926;13.608;2022-10-16T14:46:39;57.30;;;42.10;;
52188;SDS011;38162;45.926;13.608;2022-10-16T14:51:36;51.22;;;41.22;;
52188;SDS011;38162;45.926;13.608;2022-10-16T14:54:03;61.05;;;41.95;;
52188;SDS011;38162;45.926;13.608;2022-10-16T14:56:30;60.88;;;42.72;;
52188;SDS011;38162;45.926;13.608;2022-10-16T14:59:00;56.50;;;40.67;;
52188;SDS011;38162;45.926;13.608;2022-10-16T15:01:27;59.42;;;42.03;;
52188;SDS011;38162;45.926;13.608;2022-10-16T15:03:53;58.05;;;43.45;;
52188;SDS011;38162;45.926;13.608;2022-10-16T15:06:20;57.25;;;43.55;;
52188;SDS011;38162;45.926;13.608;2022-10-16T15:08:46;53.85;;;40.08;;
52188;SDS011;38162;45.926;13.608;2022-10-16T15:11:16;56.80;;;39.63;;
52188;SDS011;38162;45.926;13.608;2022-10-16T15:13:43;59.97;;;40.60;;
52188;SDS011;38162;45.926;13.608;2022-10-16T15:16:13;55.65;;;39.50;;
52188;SDS011;38162;45.926;13.608;2022-10-16T15:18:40;53.20;;;39.85;;
52188;SDS011;38162;45.926;13.608;2022-10-16T15:21:06;55.67;;;40.63;;
52188;SDS011;38162;45.926;13.608;2022-10-16T15:23:31;50.40;;;40.83;;
52188;SDS011;38162;45.926;13.608;2022-10-16T15:25:57;55.30;;;40.10;;
52188;SDS011;38162;45.926;13.608;2022-10-16T15:28:24;56.08;;;40.92;;
52188;SDS011;38162;45.926;13.608;2022-10-16T15:30:51;54.05;;;40.63;;
52188;SDS011;38162;45.926;13.608;2022-10-16T15:33:19;54.30;;;41.70;;
52188;SDS011;38162;45.926;13.608;2022-10-16T15:35:48;55.05;;;41.75;;
52188;SDS011;38162;45.926;13.608;2022-10-16T15:38:15;57.88;;;41.10;;
52188;SDS011;38162;45.926;13.608;2022-10-16T15:40:42;53.03;;;40.88;;
52188;SDS011;38162;45.926;13.608;2022-10-16T15:43:08;53.13;;;41.22;;
52188;SDS011;38162;45.926;13.608;2022-10-16T15:45:34;113.57;;;43.33;;
52188;SDS011;38162;45.926;13.608;2022-10-16T15:48:00;57.95;;;41.13;;
52188;SDS011;38162;45.926;13.608;2022-10-16T15:50:25;53.95;;;41.38;;
52188;SDS011;38162;45.926;13.608;2022-10-16T15:52:52;52.20;;;39.35;;
52188;SDS011;38162;45.926;13.608;2022-10-16T15:55:17;60.38;;;41.72;;
52188;SDS011;38162;45.926;13.608;2022-10-16T15:57:43;53.55;;;41.22;;
52188;SDS011;38162;45.926;13.608;2022-10-16T16:00:11;56.83;;;42.60;;
52188;SDS011;38162;45.926;13.608;2022-10-16T16:02:39;58.97;;;41.15;;
52188;SDS011;38162;45.926;13.608;2022-10-16T16:05:06;61.13;;;41.33;;
52188;SDS011;38162;45.926;13.608;2022-10-16T16:07:36;61.83;;;43.08;;
52188;SDS011;38162;45.926;13.608;2022-10-16T16:10:04;58.55;;;42.80;;
52188;SDS011;38162;45.926;13.608;2022-10-16T16:12:31;56.42;;;43.60;;
52188;SDS011;38162;45.926;13.608;2022-10-16T16:14:58;55.63;;;41.70;;
52188;SDS011;38162;45.926;13.608;2022-10-16T16:17:23;59.28;;;42.13;;
52188;SDS011;38162;45.926;13.608;2022-10-16T16:19:49;55.00;;;42.22;;
52188;SDS011;38162;45.926;13.608;2022-10-16T16:22:16;56.33;;;42.75;;
52188;SDS011;38162;45.926;13.608;2022-10-16T16:24:42;60.25;;;44.95;;
52188;SDS011;38162;45.926;13.608;2022-10-16T16:27:07;60.85;;;44.50;;